sensor_id;sensor_type;location;lat;lon;timestamp;temperature;humidity
42187;DHT22;27858;51.414;0.018;2022-10-31T00:03:42;13.10;99.90
42187;DHT22;27858;51.414;0.018;2022-10-31T00:06:10;12.90;99.90
42187;DHT22;27858;51.414;0.018;2022-10-31T00:08:37;13.10;99.90
42187;DHT22;27858;51.414;0.018;2022-10-31T00:11:07;13.10;99.90
42187;DHT22;27858;51.414;0.018;2022-10-31T00:13:34;12.90;99.90
42187;DHT22;27858;51.414;0.018;2022-10-31T00:16:01;12.90;99.90
42187;DHT22;27858;51.414;0.018;2022-10-31T00:18:28;12.90;99.90
42187;DHT22;27858;51.414;0.018;2022-10-31T00:20:59;12.90;99.90
42187;DHT22;27858;51.414;0.018;2022-10-31T00:23:26;13.10;99.90
42187;DHT22;27858;51.414;0.018;2022-10-31T00:25:53;13.10;99.90
42187;DHT22;27858;51.414;0.018;2022-10-31T00:28:20;12.90;99.90
42187;DHT22;27858;51.414;0.018;2022-10-31T00:30:47;13.10;99.90
42187;DHT22;27858;51.414;0.018;2022-10-31T00:33:14;13.10;99.90
42187;DHT22;27858;51.414;0.018;2022-10-31T00:35:40;12.80;99.90
42187;DHT22;27858;51.414;0.018;2022-10-31T00:38:07;13.00;99.90
42187;DHT22;27858;51.414;0.018;2022-10-31T00:40:34;12.80;99.90
42187;DHT22;27858;51.414;0.018;2022-10-31T00:43:01;12.90;99.90
42187;DHT22;27858;51.414;0.018;2022-10-31T00:45:28;12.80;99.90
42187;DHT22;27858;51.414;0.018;2022-10-31T00:47:55;12.70;99.90
42187;DHT22;27858;51.414;0.018;2022-10-31T00:50:23;12.70;99.90
42187;DHT22;27858;51.414;0.018;2022-10-31T00:52:49;12.90;99.90
42187;DHT22;27858;51.414;0.018;2022-10-31T00:55:16;12.70;99.90
42187;DHT22;27858;51.414;0.018;2022-10-31T00:57:49;12.80;99.90
42187;DHT22;27858;51.414;0.018;2022-10-31T01:00:16;12.60;99.90
42187;DHT22;27858;51.414;0.018;2022-10-31T01:02:43;12.80;99.90
42187;DHT22;27858;51.414;0.018;2022-10-31T01:05:10;12.80;99.90
42187;DHT22;27858;51.414;0.018;2022-10-31T01:07:38;12.80;99.90
42187;DHT22;27858;51.414;0.018;2022-10-31T01:10:06;12.80;99.90
42187;DHT22;27858;51.414;0.018;2022-10-31T01:12:37;12.60;99.90
42187;DHT22;27858;51.414;0.018;2022-10-31T01:15:05;12.60;99.90
42187;DHT22;27858;51.414;0.018;2022-10-31T01:17:32;12.70;99.90
42187;DHT22;27858;51.414;0.018;2022-10-31T01:19:59;12.50;99.90
42187;DHT22;27858;51.414;0.018;2022-10-31T01:22:26;12.60;99.90
42187;DHT22;27858;51.414;0.018;2022-10-31T01:24:52;12.50;99.90
42187;DHT22;27858;51.414;0.018;2022-10-31T01:27:19;12.50;99.90
42187;DHT22;27858;51.414;0.018;2022-10-31T01:29:46;12.40;99.90
42187;DHT22;27858;51.414;0.018;2022-10-31T01:32:13;12.40;99.90
42187;DHT22;27858;51.414;0.018;2022-10-31T01:34:40;12.60;99.90
42187;DHT22;27858;51.414;0.018;2022-10-31T01:37:07;12.60;99.90
42187;DHT22;27858;51.414;0.018;2022-10-31T01:39:33;12.50;99.90
42187;DHT22;27858;51.414;0.018;2022-10-31T01:42:00;12.40;99.90
42187;DHT22;27858;51.414;0.018;2022-10-31T01:46:59;12.50;99.90
42187;DHT22;27858;51.414;0.018;2022-10-31T01:49:43;12.60;99.90
42187;DHT22;27858;51.414;0.018;2022-10-31T01:52:14;12.60;99.90
42187;DHT22;27858;51.414;0.018;2022-10-31T01:54:48;12.60;99.90
42187;DHT22;27858;51.414;0.018;2022-10-31T01:57:18;12.70;99.90
42187;DHT22;27858;51.414;0.018;2022-10-31T01:59:50;12.60;99.90
42187;DHT22;27858;51.414;0.018;2022-10-31T02:02:19;12.70;99.90
42187;DHT22;27858;51.414;0.018;2022-10-31T02:04:47;12.80;99.90
42187;DHT22;27858;51.414;0.018;2022-10-31T02:07:18;12.80;99.90
42187;DHT22;27858;51.414;0.018;2022-10-31T02:09:46;12.70;99.90
42187;DHT22;27858;51.414;0.018;2022-10-31T02:12:15;12.70;99.90
42187;DHT22;27858;51.414;0.018;2022-10-31T02:14:42;12.90;99.90
42187;DHT22;27858;51.414;0.018;2022-10-31T02:17:09;12.90;99.90
42187;DHT22;27858;51.414;0.018;2022-10-31T02:22:33;13.00;99.90
42187;DHT22;27858;51.414;0.018;2022-10-31T02:30:40;12.70;99.90
42187;DHT22;27858;51.414;0.018;2022-10-31T02:33:23;12.80;99.90
42187;DHT22;27858;51.414;0.018;2022-10-31T02:36:24;12.60;99.90
42187;DHT22;27858;51.414;0.018;2022-10-31T02:39:07;12.60;99.90
42187;DHT22;27858;51.414;0.018;2022-10-31T02:41:51;12.80;99.90
42187;DHT22;27858;51.414;0.018;2022-10-31T02:47:18;12.80;99.90
42187;DHT22;27858;51.414;0.018;2022-10-31T02:50:31;12.80;99.90
42187;DHT22;27858;51.414;0.018;2022-10-31T02:52:38;12.90;99.90
42187;DHT22;27858;51.414;0.018;2022-10-31T02:58:14;12.90;99.90
42187;DHT22;27858;51.414;0.018;2022-10-31T03:01:26;12.70;99.90
42187;DHT22;27858;51.414;0.018;2022-10-31T03:20:24;13.00;99.90
42187;DHT22;27858;51.414;0.018;2022-10-31T03:22:54;12.90;99.90
42187;DHT22;27858;51.414;0.018;2022-10-31T03:25:22;13.00;99.90
42187;DHT22;27858;51.414;0.018;2022-10-31T03:27:51;12.90;99.90
42187;DHT22;27858;51.414;0.018;2022-10-31T03:30:19;13.10;99.90
42187;DHT22;27858;51.414;0.018;2022-10-31T03:32:50;12.90;99.90
42187;DHT22;27858;51.414;0.018;2022-10-31T03:35:20;12.90;99.90
42187;DHT22;27858;51.414;0.018;2022-10-31T03:37:50;12.90;99.90
42187;DHT22;27858;51.414;0.018;2022-10-31T03:40:19;12.90;99.90
42187;DHT22;27858;51.414;0.018;2022-10-31T03:42:53;13.00;99.90
42187;DHT22;27858;51.414;0.018;2022-10-31T03:45:27;12.80;99.90
42187;DHT22;27858;51.414;0.018;2022-10-31T03:47:56;12.80;99.90
42187;DHT22;27858;51.414;0.018;2022-10-31T03:50:35;12.90;99.90
42187;DHT22;27858;51.414;0.018;2022-10-31T03:53:11;12.90;99.90
42187;DHT22;27858;51.414;0.018;2022-10-31T03:55:40;12.80;99.90
42187;DHT22;27858;51.414;0.018;2022-10-31T03:58:21;13.00;99.90
42187;DHT22;27858;51.414;0.018;2022-10-31T04:00:51;13.00;99.90
42187;DHT22;27858;51.414;0.018;2022-10-31T04:03:28;13.10;99.90
42187;DHT22;27858;51.414;0.018;2022-10-31T04:05:59;13.10;99.90
42187;DHT22;27858;51.414;0.018;2022-10-31T04:08:30;12.80;99.90
42187;DHT22;27858;51.414;0.018;2022-10-31T04:10:59;12.80;99.90
42187;DHT22;27858;51.414;0.018;2022-10-31T04:13:29;12.70;99.90
42187;DHT22;27858;51.414;0.018;2022-10-31T04:15:58;13.00;99.90
42187;DHT22;27858;51.414;0.018;2022-10-31T04:18:25;13.00;99.90
42187;DHT22;27858;51.414;0.018;2022-10-31T04:21:04;13.00;99.90
42187;DHT22;27858;51.414;0.018;2022-10-31T04:23:33;12.70;99.90
42187;DHT22;27858;51.414;0.018;2022-10-31T04:26:00;12.60;99.90
42187;DHT22;27858;51.414;0.018;2022-10-31T04:28:27;12.70;99.90
42187;DHT22;27858;51.414;0.018;2022-10-31T04:30:54;12.80;99.90
42187;DHT22;27858;51.414;0.018;2022-10-31T04:33:21;12.70;99.90
42187;DHT22;27858;51.414;0.018;2022-10-31T04:35:48;12.70;99.90
42187;DHT22;27858;51.414;0.018;2022-10-31T04:38:14;12.70;99.90
42187;DHT22;27858;51.414;0.018;2022-10-31T04:40:41;12.90;99.90
42187;DHT22;27858;51.414;0.018;2022-10-31T04:43:08;12.80;99.90
42187;DHT22;27858;51.414;0.018;2022-10-31T04:45:35;12.50;99.90
42187;DHT22;27858;51.414;0.018;2022-10-31T04:48:02;12.80;99.90
42187;DHT22;27858;51.414;0.018;2022-10-31T04:50:29;12.60;99.90
42187;DHT22;27858;51.414;0.018;2022-10-31T04:52:56;12.70;99.90
42187;DHT22;27858;51.414;0.018;2022-10-31T04:55:23;12.40;99.90
42187;DHT22;27858;51.414;0.018;2022-10-31T04:57:50;12.50;99.90
42187;DHT22;27858;51.414;0.018;2022-10-31T05:00:19;12.50;99.90
42187;DHT22;27858;51.414;0.018;2022-10-31T05:02:54;12.40;99.90
42187;DHT22;27858;51.414;0.018;2022-10-31T05:05:25;12.60;99.90
42187;DHT22;27858;51.414;0.018;2022-10-31T05:07:52;12.40;99.90
42187;DHT22;27858;51.414;0.018;2022-10-31T05:10:22;12.70;99.90
42187;DHT22;27858;51.414;0.018;2022-10-31T05:12:54;12.60;99.90
42187;DHT22;27858;51.414;0.018;2022-10-31T05:15:22;12.50;99.90
42187;DHT22;27858;51.414;0.018;2022-10-31T05:17:50;12.60;99.90
42187;DHT22;27858;51.414;0.018;2022-10-31T05:20:19;12.50;99.90
42187;DHT22;27858;51.414;0.018;2022-10-31T05:22:48;12.50;99.90
42187;DHT22;27858;51.414;0.018;2022-10-31T05:25:16;12.60;99.90
42187;DHT22;27858;51.414;0.018;2022-10-31T05:27:45;12.60;99.90
42187;DHT22;27858;51.414;0.018;2022-10-31T05:30:15;12.60;99.90
42187;DHT22;27858;51.414;0.018;2022-10-31T05:32:44;12.30;99.90
42187;DHT22;27858;51.414;0.018;2022-10-31T05:35:14;12.60;99.90
42187;DHT22;27858;51.414;0.018;2022-10-31T05:37:41;12.30;99.90
42187;DHT22;27858;51.414;0.018;2022-10-31T05:40:11;12.20;99.90
42187;DHT22;27858;51.414;0.018;2022-10-31T05:42:39;12.30;99.90
42187;DHT22;27858;51.414;0.018;2022-10-31T05:45:12;12.20;99.90
42187;DHT22;27858;51.414;0.018;2022-10-31T05:47:38;12.30;99.90
42187;DHT22;27858;51.414;0.018;2022-10-31T05:50:06;12.20;99.90
42187;DHT22;27858;51.414;0.018;2022-10-31T05:52:34;12.20;99.90
42187;DHT22;27858;51.414;0.018;2022-10-31T05:55:00;12.30;99.90
42187;DHT22;27858;51.414;0.018;2022-10-31T05:57:28;12.30;99.90
42187;DHT22;27858;51.414;0.018;2022-10-31T05:59:55;12.30;99.90
42187;DHT22;27858;51.414;0.018;2022-10-31T06:02:22;12.00;99.90
42187;DHT22;27858;51.414;0.018;2022-10-31T06:04:49;12.00;99.90
42187;DHT22;27858;51.414;0.018;2022-10-31T06:07:16;12.00;99.90
42187;DHT22;27858;51.414;0.018;2022-10-31T06:09:43;12.20;99.90
42187;DHT22;27858;51.414;0.018;2022-10-31T06:12:10;12.20;99.90
42187;DHT22;27858;51.414;0.018;2022-10-31T06:14:36;12.00;99.90
42187;DHT22;27858;51.414;0.018;2022-10-31T06:17:03;12.10;99.90
42187;DHT22;27858;51.414;0.018;2022-10-31T06:19:30;11.90;99.90
42187;DHT22;27858;51.414;0.018;2022-10-31T06:21:57;12.10;99.90
42187;DHT22;27858;51.414;0.018;2022-10-31T06:24:23;11.90;99.90
42187;DHT22;27858;51.414;0.018;2022-10-31T06:26:50;12.10;99.90
42187;DHT22;27858;51.414;0.018;2022-10-31T06:29:17;12.00;99.90
42187;DHT22;27858;51.414;0.018;2022-10-31T06:31:44;11.90;99.90
42187;DHT22;27858;51.414;0.018;2022-10-31T06:34:11;11.80;99.90
42187;DHT22;27858;51.414;0.018;2022-10-31T06:36:37;12.00;99.90
42187;DHT22;27858;51.414;0.018;2022-10-31T06:39:04;11.90;99.90
42187;DHT22;27858;51.414;0.018;2022-10-31T06:41:31;11.80;99.90
42187;DHT22;27858;51.414;0.018;2022-10-31T06:43:58;11.80;99.90
42187;DHT22;27858;51.414;0.018;2022-10-31T06:46:30;11.80;99.90
42187;DHT22;27858;51.414;0.018;2022-10-31T06:48:57;11.80;99.90
42187;DHT22;27858;51.414;0.018;2022-10-31T06:51:23;11.80;99.90
42187;DHT22;27858;51.414;0.018;2022-10-31T06:53:50;12.00;99.90
42187;DHT22;27858;51.414;0.018;2022-10-31T06:56:17;12.00;99.90
42187;DHT22;27858;51.414;0.018;2022-10-31T06:58:44;12.10;99.90
42187;DHT22;27858;51.414;0.018;2022-10-31T07:01:11;11.80;99.90
42187;DHT22;27858;51.414;0.018;2022-10-31T07:03:38;12.00;99.90
42187;DHT22;27858;51.414;0.018;2022-10-31T07:06:04;12.00;99.90
42187;DHT22;27858;51.414;0.018;2022-10-31T07:08:31;11.70;99.90
42187;DHT22;27858;51.414;0.018;2022-10-31T07:10:58;11.70;99.90
42187;DHT22;27858;51.414;0.018;2022-10-31T07:13:25;11.90;99.90
42187;DHT22;27858;51.414;0.018;2022-10-31T07:15:53;12.00;99.90
42187;DHT22;27858;51.414;0.018;2022-10-31T07:18:21;11.90;99.90
42187;DHT22;27858;51.414;0.018;2022-10-31T07:20:48;11.70;99.90
42187;DHT22;27858;51.414;0.018;2022-10-31T07:23:15;11.90;99.90
42187;DHT22;27858;51.414;0.018;2022-10-31T07:25:42;12.00;99.90
42187;DHT22;27858;51.414;0.018;2022-10-31T07:28:12;12.00;99.90
42187;DHT22;27858;51.414;0.018;2022-10-31T07:30:39;11.70;99.90
42187;DHT22;27858;51.414;0.018;2022-10-31T07:33:06;11.90;99.90
42187;DHT22;27858;51.414;0.018;2022-10-31T07:35:33;12.00;99.90
42187;DHT22;27858;51.414;0.018;2022-10-31T07:38:12;12.00;99.90
42187;DHT22;27858;51.414;0.018;2022-10-31T07:40:39;12.00;99.90
42187;DHT22;27858;51.414;0.018;2022-10-31T07:43:07;11.90;99.90
42187;DHT22;27858;51.414;0.018;2022-10-31T07:45:39;12.20;99.90
42187;DHT22;27858;51.414;0.018;2022-10-31T07:48:06;12.20;99.90
42187;DHT22;27858;51.414;0.018;2022-10-31T07:50:33;12.10;99.90
42187;DHT22;27858;51.414;0.018;2022-10-31T07:53:08;12.00;99.90
42187;DHT22;27858;51.414;0.018;2022-10-31T07:55:36;12.20;99.90
42187;DHT22;27858;51.414;0.018;2022-10-31T07:58:14;12.30;99.90
42187;DHT22;27858;51.414;0.018;2022-10-31T08:00:44;12.30;99.90
42187;DHT22;27858;51.414;0.018;2022-10-31T08:03:13;12.40;99.90
42187;DHT22;27858;51.414;0.018;2022-10-31T08:05:41;12.20;99.90
42187;DHT22;27858;51.414;0.018;2022-10-31T08:08:08;12.40;99.90
42187;DHT22;27858;51.414;0.018;2022-10-31T08:10:36;12.50;99.90
42187;DHT22;27858;51.414;0.018;2022-10-31T08:13:13;12.60;99.90
42187;DHT22;27858;51.414;0.018;2022-10-31T08:15:40;12.40;99.90
42187;DHT22;27858;51.414;0.018;2022-10-31T08:18:13;12.60;99.90
42187;DHT22;27858;51.414;0.018;2022-10-31T08:20:41;12.70;99.90
42187;DHT22;27858;51.414;0.018;2022-10-31T08:23:09;12.60;99.90
42187;DHT22;27858;51.414;0.018;2022-10-31T08:25:37;12.60;99.90
42187;DHT22;27858;51.414;0.018;2022-10-31T08:28:06;12.60;99.90
42187;DHT22;27858;51.414;0.018;2022-10-31T08:30:35;12.70;99.90
42187;DHT22;27858;51.414;0.018;2022-10-31T08:33:10;12.90;99.90
42187;DHT22;27858;51.414;0.018;2022-10-31T08:35:37;13.00;99.90
42187;DHT22;27858;51.414;0.018;2022-10-31T08:38:04;13.10;99.90
42187;DHT22;27858;51.414;0.018;2022-10-31T08:40:32;13.00;99.90
42187;DHT22;27858;51.414;0.018;2022-10-31T08:43:01;13.20;99.90
42187;DHT22;27858;51.414;0.018;2022-10-31T08:45:30;13.20;99.90
42187;DHT22;27858;51.414;0.018;2022-10-31T08:48:02;13.30;99.90
42187;DHT22;27858;51.414;0.018;2022-10-31T08:50:31;13.40;99.90
42187;DHT22;27858;51.414;0.018;2022-10-31T08:53:25;13.40;99.90
42187;DHT22;27858;51.414;0.018;2022-10-31T08:55:55;13.30;99.90
42187;DHT22;27858;51.414;0.018;2022-10-31T08:58:23;13.50;99.90
42187;DHT22;27858;51.414;0.018;2022-10-31T09:00:52;13.60;99.90
42187;DHT22;27858;51.414;0.018;2022-10-31T09:03:25;13.60;99.90
42187;DHT22;27858;51.414;0.018;2022-10-31T09:05:57;13.60;99.90
42187;DHT22;27858;51.414;0.018;2022-10-31T09:08:25;13.80;99.90
42187;DHT22;27858;51.414;0.018;2022-10-31T09:10:52;13.80;99.90
42187;DHT22;27858;51.414;0.018;2022-10-31T09:13:22;13.60;99.90
42187;DHT22;27858;51.414;0.018;2022-10-31T09:15:53;13.80;99.90
42187;DHT22;27858;51.414;0.018;2022-10-31T09:18:21;13.90;99.90
42187;DHT22;27858;51.414;0.018;2022-10-31T09:20:49;13.80;99.90
42187;DHT22;27858;51.414;0.018;2022-10-31T09:23:23;14.00;99.90
42187;DHT22;27858;51.414;0.018;2022-10-31T09:25:51;14.20;99.90
42187;DHT22;27858;51.414;0.018;2022-10-31T09:28:21;14.10;99.90
42187;DHT22;27858;51.414;0.018;2022-10-31T09:30:50;14.20;99.90
42187;DHT22;27858;51.414;0.018;2022-10-31T09:33:17;14.30;99.90
42187;DHT22;27858;51.414;0.018;2022-10-31T09:35:44;14.50;99.90
42187;DHT22;27858;51.414;0.018;2022-10-31T09:38:20;14.50;99.90
42187;DHT22;27858;51.414;0.018;2022-10-31T09:41:30;14.70;99.90
42187;DHT22;27858;51.414;0.018;2022-10-31T09:44:21;14.70;99.90
42187;DHT22;27858;51.414;0.018;2022-10-31T09:52:29;14.90;99.90
42187;DHT22;27858;51.414;0.018;2022-10-31T09:55:06;14.90;99.90
42187;DHT22;27858;51.414;0.018;2022-10-31T09:57:36;14.90;99.90
42187;DHT22;27858;51.414;0.018;2022-10-31T10:00:05;14.90;99.90
42187;DHT22;27858;51.414;0.018;2022-10-31T10:02:53;15.10;99.90
42187;DHT22;27858;51.414;0.018;2022-10-31T10:06:14;15.10;99.90
42187;DHT22;27858;51.414;0.018;2022-10-31T10:08:19;15.10;99.90
42187;DHT22;27858;51.414;0.018;2022-10-31T10:11:08;15.10;99.90
42187;DHT22;27858;51.414;0.018;2022-10-31T10:22:45;15.20;99.90
42187;DHT22;27858;51.414;0.018;2022-10-31T10:30:47;15.30;99.90
42187;DHT22;27858;51.414;0.018;2022-10-31T10:33:28;15.30;99.90
42187;DHT22;27858;51.414;0.018;2022-10-31T10:36:03;15.30;99.90
42187;DHT22;27858;51.414;0.018;2022-10-31T10:38:49;15.40;99.90
42187;DHT22;27858;51.414;0.018;2022-10-31T10:41:20;15.30;99.90
42187;DHT22;27858;51.414;0.018;2022-10-31T10:43:51;15.40;99.90
42187;DHT22;27858;51.414;0.018;2022-10-31T10:46:37;15.50;99.90
42187;DHT22;27858;51.414;0.018;2022-10-31T10:49:51;15.40;99.90
42187;DHT22;27858;51.414;0.018;2022-10-31T10:58:08;15.60;84.70
42187;DHT22;27858;51.414;0.018;2022-10-31T11:00:45;15.70;78.00
42187;DHT22;27858;51.414;0.018;2022-10-31T11:03:18;15.80;67.50
42187;DHT22;27858;51.414;0.018;2022-10-31T11:05:56;15.80;59.90
42187;DHT22;27858;51.414;0.018;2022-10-31T11:08:30;15.90;52.30
42187;DHT22;27858;51.414;0.018;2022-10-31T11:11:02;16.00;50.40
42187;DHT22;27858;51.414;0.018;2022-10-31T11:13:33;16.00;54.30
42187;DHT22;27858;51.414;0.018;2022-10-31T11:18:34;16.10;50.60
42187;DHT22;27858;51.414;0.018;2022-10-31T11:21:04;16.20;28.90
42187;DHT22;27858;51.414;0.018;2022-10-31T11:23:32;16.20;22.60
42187;DHT22;27858;51.414;0.018;2022-10-31T11:26:05;16.30;5.60
42187;DHT22;27858;51.414;0.018;2022-10-31T11:28:33;16.30;8.50
42187;DHT22;27858;51.414;0.018;2022-10-31T11:31:07;16.30;9.80
42187;DHT22;27858;51.414;0.018;2022-10-31T11:33:38;16.40;1.00
42187;DHT22;27858;51.414;0.018;2022-10-31T11:36:18;16.40;1.00
42187;DHT22;27858;51.414;0.018;2022-10-31T11:38:47;16.40;1.00
42187;DHT22;27858;51.414;0.018;2022-10-31T11:41:24;16.40;1.00
42187;DHT22;27858;51.414;0.018;2022-10-31T11:43:55;16.50;1.00
42187;DHT22;27858;51.414;0.018;2022-10-31T11:47:01;16.50;1.00
42187;DHT22;27858;51.414;0.018;2022-10-31T11:49:38;16.50;1.00
42187;DHT22;27858;51.414;0.018;2022-10-31T11:52:27;16.50;1.00
42187;DHT22;27858;51.414;0.018;2022-10-31T11:57:49;16.50;1.00
42187;DHT22;27858;51.414;0.018;2022-10-31T12:00:31;16.40;1.00
42187;DHT22;27858;51.414;0.018;2022-10-31T12:03:13;16.50;1.00
42187;DHT22;27858;51.414;0.018;2022-10-31T12:05:41;16.50;1.00
42187;DHT22;27858;51.414;0.018;2022-10-31T12:08:11;16.60;1.00
42187;DHT22;27858;51.414;0.018;2022-10-31T12:16:22;16.70;1.00
42187;DHT22;27858;51.414;0.018;2022-10-31T12:19:17;16.70;1.00
42187;DHT22;27858;51.414;0.018;2022-10-31T12:22:30;16.70;1.00
42187;DHT22;27858;51.414;0.018;2022-10-31T12:36:32;16.70;1.00
42187;DHT22;27858;51.414;0.018;2022-10-31T12:45:01;16.80;1.00
42187;DHT22;27858;51.414;0.018;2022-10-31T12:50:29;16.80;1.00
42187;DHT22;27858;51.414;0.018;2022-10-31T12:56:05;17.00;1.00
42187;DHT22;27858;51.414;0.018;2022-10-31T12:58:45;17.00;1.00
42187;DHT22;27858;51.414;0.018;2022-10-31T13:01:41;17.00;1.00
42187;DHT22;27858;51.414;0.018;2022-10-31T13:04:30;17.10;1.00
42187;DHT22;27858;51.414;0.018;2022-10-31T13:07:03;17.10;1.00
42187;DHT22;27858;51.414;0.018;2022-10-31T13:09:38;17.20;1.00
42187;DHT22;27858;51.414;0.018;2022-10-31T13:12:11;17.10;1.00
42187;DHT22;27858;51.414;0.018;2022-10-31T13:14:46;17.10;1.00
42187;DHT22;27858;51.414;0.018;2022-10-31T13:17:42;17.10;1.00
42187;DHT22;27858;51.414;0.018;2022-10-31T13:20:15;17.00;1.00
42187;DHT22;27858;51.414;0.018;2022-10-31T13:22:45;17.00;1.00
42187;DHT22;27858;51.414;0.018;2022-10-31T13:25:30;17.10;1.00
42187;DHT22;27858;51.414;0.018;2022-10-31T13:28:05;17.10;1.00
42187;DHT22;27858;51.414;0.018;2022-10-31T13:30:40;17.10;1.00
42187;DHT22;27858;51.414;0.018;2022-10-31T13:33:18;17.10;1.00
42187;DHT22;27858;51.414;0.018;2022-10-31T13:38:56;17.00;1.00
42187;DHT22;27858;51.414;0.018;2022-10-31T13:44:21;17.00;1.00
42187;DHT22;27858;51.414;0.018;2022-10-31T13:46:54;17.10;1.00
42187;DHT22;27858;51.414;0.018;2022-10-31T13:49:46;17.20;1.00
42187;DHT22;27858;51.414;0.018;2022-10-31T13:52:13;17.40;1.00
42187;DHT22;27858;51.414;0.018;2022-10-31T13:54:50;17.40;1.00
42187;DHT22;27858;51.414;0.018;2022-10-31T13:57:33;17.40;1.00
42187;DHT22;27858;51.414;0.018;2022-10-31T14:02:53;17.30;1.00
42187;DHT22;27858;51.414;0.018;2022-10-31T14:05:30;17.20;1.00
42187;DHT22;27858;51.414;0.018;2022-10-31T14:08:00;17.10;1.00
42187;DHT22;27858;51.414;0.018;2022-10-31T14:10:31;17.10;1.00
42187;DHT22;27858;51.414;0.018;2022-10-31T14:15:56;16.90;1.00
42187;DHT22;27858;51.414;0.018;2022-10-31T14:18:34;16.90;1.00
42187;DHT22;27858;51.414;0.018;2022-10-31T14:21:38;16.80;1.00
42187;DHT22;27858;51.414;0.018;2022-10-31T14:24:35;16.70;1.00
42187;DHT22;27858;51.414;0.018;2022-10-31T14:29:54;16.60;1.00
42187;DHT22;27858;51.414;0.018;2022-10-31T14:32:23;16.70;1.00
42187;DHT22;27858;51.414;0.018;2022-10-31T14:34:53;16.60;1.00
42187;DHT22;27858;51.414;0.018;2022-10-31T14:43:19;16.40;1.00
42187;DHT22;27858;51.414;0.018;2022-10-31T14:51:44;16.30;1.00
42187;DHT22;27858;51.414;0.018;2022-10-31T14:54:18;16.30;1.00
42187;DHT22;27858;51.414;0.018;2022-10-31T14:56:50;16.20;1.00
42187;DHT22;27858;51.414;0.018;2022-10-31T14:59:23;16.20;1.00
42187;DHT22;27858;51.414;0.018;2022-10-31T15:01:59;16.20;1.00
42187;DHT22;27858;51.414;0.018;2022-10-31T15:04:29;16.20;1.00
42187;DHT22;27858;51.414;0.018;2022-10-31T15:07:14;16.20;1.00
42187;DHT22;27858;51.414;0.018;2022-10-31T15:10:01;16.10;1.00
42187;DHT22;27858;51.414;0.018;2022-10-31T15:12:30;16.10;1.00
42187;DHT22;27858;51.414;0.018;2022-10-31T15:15:10;16.10;1.00
42187;DHT22;27858;51.414;0.018;2022-10-31T15:17:46;16.10;1.00
42187;DHT22;27858;51.414;0.018;2022-10-31T15:20:41;16.10;1.00
42187;DHT22;27858;51.414;0.018;2022-10-31T15:23:14;16.00;1.00
42187;DHT22;27858;51.414;0.018;2022-10-31T15:25:42;16.00;1.00
42187;DHT22;27858;51.414;0.018;2022-10-31T15:28:14;16.00;1.00
42187;DHT22;27858;51.414;0.018;2022-10-31T15:30:50;15.90;1.00
42187;DHT22;27858;51.414;0.018;2022-10-31T15:33:20;16.00;1.00
42187;DHT22;27858;51.414;0.018;2022-10-31T15:35:55;15.90;1.00
42187;DHT22;27858;51.414;0.018;2022-10-31T15:38:23;15.90;1.00
42187;DHT22;27858;51.414;0.018;2022-10-31T15:40:53;15.90;1.00
42187;DHT22;27858;51.414;0.018;2022-10-31T15:43:21;15.90;1.00
42187;DHT22;27858;51.414;0.018;2022-10-31T15:45:48;15.80;1.00
42187;DHT22;27858;51.414;0.018;2022-10-31T15:48:18;15.80;1.00
42187;DHT22;27858;51.414;0.018;2022-10-31T15:50:52;15.80;1.00
42187;DHT22;27858;51.414;0.018;2022-10-31T15:55:59;15.70;1.00
42187;DHT22;27858;51.414;0.018;2022-10-31T15:58:27;15.70;1.00
42187;DHT22;27858;51.414;0.018;2022-10-31T16:01:17;15.80;1.30
42187;DHT22;27858;51.414;0.018;2022-10-31T16:06:30;15.70;2.80
42187;DHT22;27858;51.414;0.018;2022-10-31T16:08:58;15.60;7.70
42187;DHT22;27858;51.414;0.018;2022-10-31T16:11:36;15.60;8.10
42187;DHT22;27858;51.414;0.018;2022-10-31T16:14:17;15.60;8.20
42187;DHT22;27858;51.414;0.018;2022-10-31T16:16:53;15.60;8.40
42187;DHT22;27858;51.414;0.018;2022-10-31T16:19:36;15.60;8.70
42187;DHT22;27858;51.414;0.018;2022-10-31T16:22:28;15.60;10.30
42187;DHT22;27858;51.414;0.018;2022-10-31T16:27:31;15.60;8.50
42187;DHT22;27858;51.414;0.018;2022-10-31T16:30:00;15.50;9.30
42187;DHT22;27858;51.414;0.018;2022-10-31T16:35:25;15.50;8.90
42187;DHT22;27858;51.414;0.018;2022-10-31T16:37:52;15.50;8.00
42187;DHT22;27858;51.414;0.018;2022-10-31T16:40:20;15.50;10.50
42187;DHT22;27858;51.414;0.018;2022-10-31T16:42:47;15.50;10.30
42187;DHT22;27858;51.414;0.018;2022-10-31T16:45:23;15.50;9.60
42187;DHT22;27858;51.414;0.018;2022-10-31T16:47:51;15.40;10.80
42187;DHT22;27858;51.414;0.018;2022-10-31T16:50:23;15.50;10.60
42187;DHT22;27858;51.414;0.018;2022-10-31T16:52:50;15.40;11.50
42187;DHT22;27858;51.414;0.018;2022-10-31T16:55:43;15.40;9.50
42187;DHT22;27858;51.414;0.018;2022-10-31T16:58:34;15.40;11.10
42187;DHT22;27858;51.414;0.018;2022-10-31T17:01:03;15.30;13.20
42187;DHT22;27858;51.414;0.018;2022-10-31T17:03:31;15.30;15.60
42187;DHT22;27858;51.414;0.018;2022-10-31T17:05:58;15.30;16.40
42187;DHT22;27858;51.414;0.018;2022-10-31T17:08:25;15.30;17.50
42187;DHT22;27858;51.414;0.018;2022-10-31T17:10:54;15.30;20.10
42187;DHT22;27858;51.414;0.018;2022-10-31T17:13:27;15.30;22.80
42187;DHT22;27858;51.414;0.018;2022-10-31T17:15:57;15.30;28.10
42187;DHT22;27858;51.414;0.018;2022-10-31T17:18:25;15.30;32.00
42187;DHT22;27858;51.414;0.018;2022-10-31T17:20:58;15.30;35.30
42187;DHT22;27858;51.414;0.018;2022-10-31T17:23:26;15.30;46.00
42187;DHT22;27858;51.414;0.018;2022-10-31T17:25:54;15.30;64.20
42187;DHT22;27858;51.414;0.018;2022-10-31T17:28:21;15.30;84.50
42187;DHT22;27858;51.414;0.018;2022-10-31T17:30:48;15.30;99.90
42187;DHT22;27858;51.414;0.018;2022-10-31T17:33:16;15.30;99.90
42187;DHT22;27858;51.414;0.018;2022-10-31T17:35:43;15.20;99.90
42187;DHT22;27858;51.414;0.018;2022-10-31T17:38:13;15.10;99.90
42187;DHT22;27858;51.414;0.018;2022-10-31T17:40:40;15.20;99.90
42187;DHT22;27858;51.414;0.018;2022-10-31T17:43:12;15.00;99.90
42187;DHT22;27858;51.414;0.018;2022-10-31T17:45:42;15.10;99.90
42187;DHT22;27858;51.414;0.018;2022-10-31T17:48:11;15.10;99.90
42187;DHT22;27858;51.414;0.018;2022-10-31T17:50:39;15.00;99.90
42187;DHT22;27858;51.414;0.018;2022-10-31T17:53:07;15.00;99.90
42187;DHT22;27858;51.414;0.018;2022-10-31T17:55:34;15.00;99.90
42187;DHT22;27858;51.414;0.018;2022-10-31T17:58:03;14.90;99.90
42187;DHT22;27858;51.414;0.018;2022-10-31T18:00:31;15.10;99.90
42187;DHT22;27858;51.414;0.018;2022-10-31T18:02:57;14.90;99.90
42187;DHT22;27858;51.414;0.018;2022-10-31T18:05:25;15.00;99.90
42187;DHT22;27858;51.414;0.018;2022-10-31T18:07:52;14.90;99.90
42187;DHT22;27858;51.414;0.018;2022-10-31T18:10:19;14.90;99.90
42187;DHT22;27858;51.414;0.018;2022-10-31T18:12:46;14.80;99.90
42187;DHT22;27858;51.414;0.018;2022-10-31T18:15:15;14.90;99.90
42187;DHT22;27858;51.414;0.018;2022-10-31T18:17:43;14.90;99.90